Time;durP1;ratioP1;P1;durP2;ratioP2;P2;SDS_P1;SDS_P2;PMS_P1;PMS_P2;Temp;Humidity;BMP_temperature;BMP_pressure;BME280_temperature;BME280_humidity;BME280_pressure;Samples;Min_cycle;Max_cycle;Signal;HPM_P1;HPM_P2
2022/09/01 00:01:23;;;;;;;8.53;4.87;;;;;;;17.06;64.90;100098.52;1748189;80;21147;-69
2022/09/01 00:03:51;;;;;;;7.12;4.40;;;;;;;17.02;65.01;100093.20;1794845;78;22289;-68
2022/09/01 00:06:21;;;;;;;8.43;4.78;;;;;;;16.95;65.08;100090.88;1794181;79;21533;-68
2022/09/01 00:08:52;;;;;;;6.37;4.80;;;;;;;16.92;65.27;100099.23;1775981;78;20921;-69
2022/09/01 00:11:20;;;;;;;6.15;4.62;;;;;;;16.84;65.35;100093.39;1794591;78;21525;-68
2022/09/01 00:13:48;;;;;;;7.33;4.75;;;;;;;16.79;65.48;100099.75;1766461;80;20843;-68
2022/09/01 00:16:16;;;;;;;6.33;4.70;;;;;;;16.74;65.66;100098.58;1809422;78;21801;-68
2022/09/01 00:18:48;;;;;;;7.58;4.70;;;;;;;16.70;65.82;100096.77;1796983;78;21066;-68
2022/09/01 00:21:16;;;;;;;8.20;4.60;;;;;;;16.67;65.93;100094.87;1794687;78;21376;-70
2022/09/01 00:23:44;;;;;;;8.28;5.00;;;;;;;16.60;66.04;100094.23;1795272;78;21027;-68
2022/09/01 00:26:11;;;;;;;7.55;5.15;;;;;;;16.55;66.13;100096.55;1794719;78;21047;-69
2022/09/01 00:28:38;;;;;;;6.45;4.80;;;;;;;16.49;66.26;100097.21;1795099;78;21887;-68
2022/09/01 00:31:06;;;;;;;6.78;4.72;;;;;;;16.45;66.42;100097.72;1793947;78;20970;-70
2022/09/01 00:33:34;;;;;;;6.90;4.20;;;;;;;16.44;66.59;100096.89;1792741;78;21068;-69
2022/09/01 00:36:01;;;;;;;7.22;4.60;;;;;;;16.42;66.74;100104.73;1790597;78;21053;-69
2022/09/01 00:38:28;;;;;;;7.17;4.70;;;;;;;16.40;66.85;100102.70;1797544;79;20924;-69
2022/09/01 00:40:55;;;;;;;6.10;4.70;;;;;;;16.37;66.93;100105.21;1789910;79;21817;-70
2022/09/01 00:43:25;;;;;;;7.78;4.67;;;;;;;16.34;67.00;100105.55;1800342;78;20928;-71
2022/09/01 00:45:52;;;;;;;8.70;4.55;;;;;;;16.30;67.09;100109.03;1786796;78;21078;-68
2022/09/01 00:48:20;;;;;;;7.50;4.42;;;;;;;16.25;67.25;100107.88;1790672;80;21054;-68
2022/09/01 00:50:48;;;;;;;7.50;4.80;;;;;;;16.21;67.33;100108.72;1791938;78;21466;-69
2022/09/01 00:53:14;;;;;;;8.38;5.17;;;;;;;16.19;67.48;100105.36;1750643;81;21769;-69
2022/09/01 00:55:42;;;;;;;7.97;4.80;;;;;;;16.19;67.58;100113.85;1783668;80;21001;-68
2022/09/01 00:58:09;;;;;;;6.75;4.70;;;;;;;16.19;67.68;100115.18;1777568;79;21000;-69
2022/09/01 01:00:39;;;;;;;6.00;4.72;;;;;;;16.19;67.83;100116.02;1769625;79;21000;-69
2022/09/01 01:03:08;;;;;;;7.22;5.00;;;;;;;16.19;67.80;100108.52;1791892;78;20931;-69
2022/09/01 01:05:45;;;;;;;7.58;4.95;;;;;;;16.21;67.79;100107.85;1790437;80;22000;-68
2022/09/01 01:08:11;;;;;;;8.03;4.62;;;;;;;16.20;67.86;100109.68;1788829;80;21460;-69
2022/09/01 01:10:40;;;;;;;6.80;4.47;;;;;;;16.20;67.82;100112.84;1763680;80;21419;-69
2022/09/01 01:13:14;;;;;;;6.30;4.70;;;;;;;16.14;67.85;100113.02;1806927;78;21370;-69
2022/09/01 01:15:44;;;;;;;7.37;4.58;;;;;;;16.09;67.86;100114.50;1785554;79;20975;-69
2022/09/01 01:18:13;;;;;;;6.50;4.62;;;;;;;16.03;67.91;100119.50;1787993;80;39718;-69
2022/09/01 01:23:37;;;;;;;6.78;5.00;;;;;;;15.94;68.13;100108.48;1787589;80;21003;-67
2022/09/01 01:26:06;;;;;;;7.10;4.75;;;;;;;15.89;68.16;100116.12;1792089;78;20959;-68
2022/09/01 01:28:37;;;;;;;7.62;4.83;;;;;;;15.82;68.21;100115.59;1791852;80;21454;-69
2022/09/01 01:31:11;;;;;;;8.45;4.95;;;;;;;15.77;68.24;100117.92;1791422;78;21897;-68
2022/09/01 01:33:49;;;;;;;5.87;4.30;;;;;;;15.70;68.24;100114.56;1780410;78;21023;-70
2022/09/01 01:36:31;;;;;;;8.88;4.90;;;;;;;15.65;68.29;100112.06;1768132;78;21040;-68
2022/09/01 01:39:08;;;;;;;7.08;4.53;;;;;;;15.61;68.54;100114.69;1794339;78;21016;-68
2022/09/01 01:41:39;;;;;;;9.08;4.80;;;;;;;15.59;68.63;100117.98;1790492;79;20948;-69
2022/09/01 01:44:05;;;;;;;9.50;5.15;;;;;;;15.58;68.70;100116.31;1780059;78;21748;-70
2022/09/01 01:46:33;;;;;;;7.45;4.65;;;;;;;15.52;68.76;100113.78;1791701;80;21003;-69
2022/09/01 01:49:01;;;;;;;6.35;4.87;;;;;;;15.50;68.73;100117.61;1794019;80;21014;-70
2022/09/01 01:51:30;;;;;;;6.05;4.58;;;;;;;15.46;68.83;100123.76;1794666;80;20940;-69
2022/09/01 01:54:01;;;;;;;8.75;4.67;;;;;;;15.43;68.92;100116.91;1795805;78;20988;-69
2022/09/01 01:56:26;;;;;;;6.40;4.53;;;;;;;15.42;68.97;100115.73;1809323;78;22614;-70
2022/09/01 01:58:55;;;;;;;8.95;4.95;;;;;;;15.38;68.98;100114.41;1809380;78;20952;-69
2022/09/01 02:01:24;;;;;;;6.60;4.90;;;;;;;15.35;69.09;100115.56;1784798;79;20988;-70
2022/09/01 02:03:53;;;;;;;7.30;4.97;;;;;;;15.32;69.16;100119.02;1770071;79;21031;-71
2022/09/01 02:06:20;;;;;;;168.32;133.10;;;;;;;15.29;69.20;100117.52;1744670;81;21031;-69
2022/09/01 02:08:46;;;;;;;176.30;140.22;;;;;;;15.24;69.34;100121.13;1769900;81;21946;-69
2022/09/01 02:11:16;;;;;;;34.48;27.15;;;;;;;15.24;69.43;100117.64;1769854;81;21027;-69
2022/09/01 02:13:45;;;;;;;13.03;10.40;;;;;;;15.27;69.67;100120.84;1769910;81;20993;-69
2022/09/01 02:16:12;;;;;;;8.75;5.75;;;;;;;15.31;69.79;100120.02;1794704;80;20967;-68
2022/09/01 02:18:46;;;;;;;10.63;5.40;;;;;;;15.35;69.83;100124.05;1793153;78;21014;-68
2022/09/01 02:21:18;;;;;;;8.70;4.78;;;;;;;15.38;69.87;100113.91;1793541;78;21822;-69
2022/09/01 02:23:48;;;;;;;8.10;5.10;;;;;;;15.39;69.89;100113.41;1794743;79;21016;-68
2022/09/01 02:26:17;;;;;;;5.58;4.67;;;;;;;15.42;69.83;100121.06;1799663;78;21040;-69
2022/09/01 02:28:48;;;;;;;7.08;4.85;;;;;;;15.41;69.67;100120.73;1785980;79;21019;-69
2022/09/01 02:31:19;;;;;;;7.50;4.72;;;;;;;15.38;69.56;100121.05;1763619;81;21102;-69
2022/09/01 02:33:44;;;;;;;8.83;4.47;;;;;;;15.32;69.43;100114.53;1769317;79;21839;-69
2022/09/01 02:36:14;;;;;;;6.90;4.58;;;;;;;15.28;69.41;100120.34;1773429;79;20964;-68
2022/09/01 02:38:44;;;;;;;7.00;4.55;;;;;;;15.24;69.38;100119.80;1771896;80;21011;-68
2022/09/01 02:41:13;;;;;;;6.80;4.67;;;;;;;15.20;69.38;100120.29;1769469;80;21039;-69
2022/09/01 02:43:44;;;;;;;6.45;4.50;;;;;;;15.15;69.45;100120.28;1770023;79;20960;-68
2022/09/01 02:46:09;;;;;;;7.62;4.67;;;;;;;15.11;69.44;100120.73;1794617;79;21829;-68
2022/09/01 02:48:38;;;;;;;6.40;4.55;;;;;;;15.05;69.50;100120.85;1793126;78;20920;-71
2022/09/01 02:51:08;;;;;;;9.58;4.85;;;;;;;15.01;69.51;100117.34;1763053;80;20940;-70
2022/09/01 02:53:36;;;;;;;7.20;4.53;;;;;;;14.97;69.51;100112.84;1791798;78;20960;-68
2022/09/01 02:56:08;;;;;;;8.00;4.55;;;;;;;14.96;69.62;100111.64;1796334;78;21003;-68
2022/09/01 02:58:44;;;;;;;6.20;4.03;;;;;;;14.93;69.65;100115.46;1796318;78;22019;-69
2022/09/01 03:01:02;;;;;;;7.00;4.45;;;;;;;14.92;69.77;100115.63;1791408;80;21011;-69
2022/09/01 03:03:29;;;;;;;7.70;4.12;;;;;;;14.92;69.86;100111.63;1789246;78;20929;-68
2022/09/01 03:05:56;;;;;;;6.60;4.25;;;;;;;14.91;69.89;100111.30;1794783;78;21031;-68
2022/09/01 03:08:24;;;;;;;7.25;3.98;;;;;;;14.89;69.87;100114.95;1791953;80;21027;-68
2022/09/01 03:10:52;;;;;;;8.25;3.98;;;;;;;14.87;69.82;100124.08;1791770;80;21919;-68
2022/09/01 03:13:22;;;;;;;5.97;4.40;;;;;;;14.85;69.88;100126.87;1792092;78;20999;-69
2022/09/01 03:15:50;;;;;;;7.62;4.47;;;;;;;14.84;69.89;100127.86;1792729;78;20947;-68
2022/09/01 03:18:17;;;;;;;6.55;4.75;;;;;;;14.80;69.90;100135.82;1783458;80;20971;-67
2022/09/01 03:20:45;;;;;;;8.23;4.72;;;;;;;14.76;69.91;100130.45;1767182;80;20991;-67
2022/09/01 03:23:14;;;;;;;7.97;4.62;;;;;;;14.73;69.92;100131.27;1802333;78;21904;-67
2022/09/01 03:25:42;;;;;;;5.62;4.40;;;;;;;14.68;69.96;100134.91;1790752;78;21446;-67
2022/09/01 03:28:12;;;;;;;7.08;4.58;;;;;;;14.63;69.97;100129.20;1791465;78;21037;-68
2022/09/01 03:30:45;;;;;;;6.67;4.20;;;;;;;14.62;70.08;100132.35;1791799;80;21419;-68
2022/09/01 03:33:12;;;;;;;6.53;4.85;;;;;;;14.58;70.18;100136.31;1801560;78;20973;-67
2022/09/01 03:35:40;;;;;;;9.60;4.50;;;;;;;14.54;70.22;100142.41;1793916;79;21847;-68
2022/09/01 03:38:07;;;;;;;5.58;4.20;;;;;;;14.51;70.26;100135.25;1791706;80;20924;-68
2022/09/01 03:40:35;;;;;;;8.33;4.75;;;;;;;14.49;70.37;100139.39;1791065;80;20931;-68
2022/09/01 03:43:04;;;;;;;6.03;4.60;;;;;;;14.47;70.51;100140.02;1791894;80;20967;-68
2022/09/01 03:45:37;;;;;;;6.97;4.42;;;;;;;14.45;70.79;100136.69;1789296;80;20992;-68
2022/09/01 03:48:05;;;;;;;7.22;4.60;;;;;;;14.46;70.91;100141.50;1789816;78;21869;-68
2022/09/01 03:50:30;;;;;;;6.22;4.10;;;;;;;14.50;71.10;100147.70;1779557;78;20908;-68
2022/09/01 03:53:00;;;;;;;5.45;3.80;;;;;;;14.56;71.32;100146.24;1795070;78;21050;-68
2022/09/01 03:55:29;;;;;;;6.37;4.65;;;;;;;14.64;71.61;100147.65;1794982;78;20959;-68
2022/09/01 03:58:05;;;;;;;8.08;4.40;;;;;;;14.72;71.64;100142.41;1795004;80;20932;-68
2022/09/01 04:00:31;;;;;;;6.37;4.10;;;;;;;14.80;71.61;100141.64;1796663;78;21827;-68
2022/09/01 04:02:59;;;;;;;6.08;4.20;;;;;;;14.86;71.57;100145.85;1778336;80;20924;-68
2022/09/01 04:05:27;;;;;;;8.58;4.28;;;;;;;14.94;71.51;100146.88;1797671;78;20999;-70
2022/09/01 04:07:57;;;;;;;6.90;4.40;;;;;;;14.99;71.51;100153.91;1795581;79;21035;-70
2022/09/01 04:10:24;;;;;;;6.33;4.12;;;;;;;15.00;71.52;100156.41;1809297;79;21476;-70
2022/09/01 04:12:50;;;;;;;6.15;4.08;;;;;;;15.04;71.57;100159.58;1797319;78;22503;-70
2022/09/01 04:15:17;;;;;;;6.67;3.72;;;;;;;15.07;71.44;100160.13;1794818;79;20924;-70
2022/09/01 04:20:38;;;;;;;7.05;4.00;;;;;;;15.16;71.24;100163.67;1771584;80;21717;-70
2022/09/01 04:23:00;;;;;;;7.78;4.33;;;;;;;15.20;71.05;100165.52;1767183;79;20992;-70
2022/09/01 04:25:26;;;;;;;6.75;4.00;;;;;;;15.23;71.01;100166.03;1794643;80;22479;-70
2022/09/01 04:27:54;;;;;;;5.10;3.92;;;;;;;15.28;70.92;100172.22;1794290;79;20955;-70
2022/09/01 04:30:25;;;;;;;7.67;3.60;;;;;;;15.31;70.82;100162.09;1794898;80;21048;-70
2022/09/01 04:32:55;;;;;;;6.00;3.95;;;;;;;15.35;70.72;100157.30;1795442;78;21003;-70
2022/09/01 04:35:31;;;;;;;9.68;4.00;;;;;;;15.38;70.60;100163.14;1797104;78;21007;-70
2022/09/01 04:37:50;;;;;;;5.05;3.67;;;;;;;15.44;70.55;100163.84;1793302;78;21814;-70
2022/09/01 04:40:17;;;;;;;5.42;3.80;;;;;;;15.48;70.48;100160.86;1793895;80;21059;-69
2022/09/01 04:42:44;;;;;;;5.62;3.67;;;;;;;15.54;70.46;100166.39;1795191;80;21023;-69
2022/09/01 04:45:12;;;;;;;5.55;3.80;;;;;;;15.60;70.45;100165.77;1794668;78;21030;-70
2022/09/01 04:47:41;;;;;;;7.90;3.22;;;;;;;15.64;70.30;100167.14;1793390;78;21476;-69
2022/09/01 04:50:13;;;;;;;6.15;3.30;;;;;;;15.69;70.20;100163.98;1770556;79;21815;-69
2022/09/01 04:52:40;;;;;;;5.50;2.98;;;;;;;15.75;69.98;100164.69;1782424;78;20947;-70
2022/09/01 04:55:17;;;;;;;5.35;3.00;;;;;;;15.81;69.77;100165.86;1765629;79;21488;-70
2022/09/01 04:57:46;;;;;;;6.28;2.90;;;;;;;15.89;69.59;100168.05;1767357;79;20971;-69
2022/09/01 05:00:22;;;;;;;7.22;2.83;;;;;;;15.97;69.27;100160.09;1767508;79;20951;-71
2022/09/01 05:02:53;;;;;;;6.00;3.08;;;;;;;16.01;68.82;100161.92;1784830;78;21957;-70
2022/09/01 05:05:21;;;;;;;5.90;2.80;;;;;;;16.08;68.55;100162.95;1788033;80;21467;-71
2022/09/01 05:07:51;;;;;;;7.62;2.85;;;;;;;16.14;68.38;100158.32;1763860;80;21461;-69
2022/09/01 05:10:20;;;;;;;4.28;2.72;;;;;;;16.18;67.80;100148.16;1790669;78;21023;-72
2022/09/01 05:12:49;;;;;;;5.20;2.80;;;;;;;16.22;67.58;100160.17;1793844;79;20921;-71
2022/09/01 05:15:16;;;;;;;29.95;25.25;;;;;;;16.27;67.43;100152.51;1790783;78;21822;-69
2022/09/01 05:17:44;;;;;;;7.97;6.00;;;;;;;16.36;67.30;100158.19;1763716;79;21093;-67
2022/09/01 05:20:11;;;;;;;12.25;9.70;;;;;;;16.46;67.27;100156.20;1795286;78;21040;-72
2022/09/01 05:22:39;;;;;;;7.03;5.37;;;;;;;16.58;66.94;100160.20;1789541;78;20959;-71
2022/09/01 05:25:12;;;;;;;6.90;3.80;;;;;;;16.68;66.78;100162.74;1786825;79;20952;-70
2022/09/01 05:27:48;;;;;;;6.50;3.58;;;;;;;16.77;66.32;100163.08;1785728;80;21765;-69
2022/09/01 05:30:17;;;;;;;6.33;2.87;;;;;;;16.81;66.06;100154.27;1789457;78;21082;-68
2022/09/01 05:32:47;;;;;;;3.87;2.65;;;;;;;16.90;65.74;100155.09;1789179;79;21043;-69
2022/09/01 05:35:12;;;;;;;3.30;2.30;;;;;;;16.96;65.23;100157.91;1789195;78;20975;-70
2022/09/01 05:37:53;;;;;;;5.83;2.60;;;;;;;17.05;65.25;100162.73;1798682;79;21481;-70
2022/09/01 05:40:23;;;;;;;5.35;2.47;;;;;;;17.19;64.79;100167.91;1793500;79;21828;-68
2022/09/01 05:42:54;;;;;;;6.28;2.90;;;;;;;17.35;64.42;100165.17;1775234;78;457079;-73
2022/09/01 05:45:26;;;;;;;5.03;2.30;;;;;;;17.48;64.00;100164.66;1704259;82;21584;-71
2022/09/01 05:47:54;;;;;;;6.28;2.50;;;;;;;17.62;63.75;100163.43;1705456;82;21158;-70
2022/09/01 05:50:27;;;;;;;3.72;2.47;;;;;;;17.73;63.45;100168.42;1712672;82;21099;-70
2022/09/01 05:52:56;;;;;;;4.62;2.60;;;;;;;17.80;62.93;100167.74;1710326;82;27696;-74
2022/09/01 05:55:26;;;;;;;5.83;2.55;;;;;;;17.84;62.62;100177.89;1712319;82;21020;-71
2022/09/01 05:57:55;;;;;;;8.28;7.35;;;;;;;17.85;62.48;100176.89;1711121;82;21059;-72
2022/09/01 06:00:33;;;;;;;23.32;19.57;;;;;;;17.91;62.52;100176.70;1710659;82;21139;-74
2022/09/01 06:02:56;;;;;;;7.62;4.95;;;;;;;17.95;62.42;100174.00;1712751;82;21027;-71
2022/09/01 06:05:28;;;;;;;6.22;3.00;;;;;;;17.99;62.19;100178.84;1708561;82;21892;-72
2022/09/01 06:07:59;;;;;;;13.43;11.80;;;;;;;18.04;62.08;100175.63;1694002;83;20960;-72
2022/09/01 06:10:29;;;;;;;8.53;6.97;;;;;;;18.17;62.16;100177.76;1713600;82;21465;-71
2022/09/01 06:13:20;;;;;;;6.47;2.80;;;;;;;18.28;61.68;100174.17;1715015;82;21060;-72
2022/09/01 06:15:52;;;;;;;5.33;2.37;;;;;;;18.35;61.27;100181.00;1674371;85;21112;-73
2022/09/01 06:18:33;;;;;;;3.30;2.10;;;;;;;18.44;60.98;100179.94;1664118;83;22391;-73
2022/09/01 06:21:03;;;;;;;5.42;2.33;;;;;;;18.47;60.37;100176.89;1671038;85;20944;-71
2022/09/01 06:23:32;;;;;;;3.62;2.22;;;;;;;18.55;60.59;100181.36;1688339;84;21539;-68
2022/09/01 06:26:04;;;;;;;4.55;2.30;;;;;;;18.67;60.32;100186.65;1644574;85;21073;-71
2022/09/01 06:28:32;;;;;;;3.95;2.10;;;;;;;18.72;59.69;100178.93;1681789;85;21054;-68
2022/09/01 06:31:03;;;;;;;6.45;2.00;;;;;;;18.78;59.75;100178.20;1646631;85;21713;-69
2022/09/01 06:37:26;;;;;;;3.47;1.98;;;;;;;18.96;59.57;100183.74;1659875;85;21541;-69
2022/09/01 06:39:56;;;;;;;4.08;2.30;;;;;;;19.14;58.97;100177.55;1657323;85;21038;-70
2022/09/01 06:42:25;;;;;;;2.12;1.70;;;;;;;19.16;58.34;100175.52;1634996;86;21022;-69
2022/09/01 06:45:01;;;;;;;5.33;1.92;;;;;;;19.18;57.75;100178.84;1666360;85;22641;-68
2022/09/01 06:47:30;;;;;;;4.42;1.72;;;;;;;19.17;56.51;100182.53;1668494;85;21413;-69
2022/09/01 06:49:59;;;;;;;8.03;2.17;;;;;;;19.18;56.08;100186.88;1648480;85;21050;-70
2022/09/01 06:52:30;;;;;;;3.60;1.70;;;;;;;19.30;56.33;100192.61;1654111;86;21044;-69
2022/09/01 06:55:03;;;;;;;2.90;1.60;;;;;;;19.42;55.84;100183.13;1636565;86;20960;-67
2022/09/01 06:57:31;;;;;;;5.97;1.70;;;;;;;19.56;54.87;100185.52;1668937;85;21801;-69
2022/09/01 07:00:16;;;;;;;6.25;1.60;;;;;;;19.64;54.66;100180.06;1671979;83;21073;-68
2022/09/01 07:02:47;;;;;;;3.27;1.72;;;;;;;19.76;53.85;100180.42;1649104;86;21475;-69
2022/09/01 07:05:40;;;;;;;4.03;1.60;;;;;;;19.83;53.00;100193.41;1642749;85;21441;-68
2022/09/01 07:08:16;;;;;;;3.17;1.65;;;;;;;19.80;52.75;100187.09;1671006;84;21061;-69
2022/09/01 07:10:52;;;;;;;6.67;4.00;;;;;;;19.90;53.33;100185.79;1657288;84;21956;-71
2022/09/01 07:13:24;;;;;;;8.58;3.27;;;;;;;20.06;51.72;100185.23;1649511;85;21052;-68
2022/09/01 07:15:54;;;;;;;58.52;52.95;;;;;;;20.20;49.02;100189.75;1717876;82;21431;-68
2022/09/01 07:18:24;;;;;;;6.50;3.72;;;;;;;20.26;48.43;100198.37;1716041;82;21059;-69
2022/09/01 07:20:53;;;;;;;5.97;2.60;;;;;;;20.32;48.26;100192.26;1718932;82;21007;-68
2022/09/01 07:23:23;;;;;;;2.98;2.30;;;;;;;20.40;48.91;100189.46;1702158;82;22490;-70
2022/09/01 07:25:54;;;;;;;7.17;3.10;;;;;;;20.51;49.09;100188.98;1694174;83;21135;-71
2022/09/01 07:28:36;;;;;;;8.83;7.90;;;;;;;20.55;49.26;100185.41;1711337;83;20952;-71
2022/09/01 07:31:08;;;;;;;5.67;4.90;;;;;;;20.51;48.78;100180.11;1715870;83;21011;-69
2022/09/01 07:33:37;;;;;;;15.70;14.10;;;;;;;20.43;49.08;100180.23;1705509;82;21418;-67
2022/09/01 07:36:07;;;;;;;27.20;21.15;;;;;;;20.42;49.21;100174.52;1715042;83;22453;-67
2022/09/01 07:38:36;;;;;;;2.45;2.02;;;;;;;20.46;48.54;100173.13;1707734;83;20967;-70
2022/09/01 07:41:03;;;;;;;5.67;1.52;;;;;;;20.51;47.18;100176.09;1700718;83;21055;-70
2022/09/01 07:43:50;;;;;;;1.95;1.40;;;;;;;20.55;46.54;100178.18;1716192;83;21029;-71
2022/09/01 07:46:35;;;;;;;5.78;1.20;;;;;;;20.62;46.70;100179.59;1704295;83;21023;-71
2022/09/01 07:49:02;;;;;;;1.77;1.17;;;;;;;20.66;46.44;100184.09;1702439;82;21823;-71
2022/09/01 07:51:29;;;;;;;2.27;0.93;;;;;;;20.63;46.69;100179.09;1709753;82;21082;-70
2022/09/01 07:53:57;;;;;;;5.42;1.12;;;;;;;20.60;46.82;100176.80;1705481;83;20995;-71
2022/09/01 07:56:26;;;;;;;1.32;0.88;;;;;;;20.67;46.22;100185.23;1693194;83;21355;-70
2022/09/01 07:58:57;;;;;;;3.25;1.00;;;;;;;20.74;44.51;100178.56;1706453;83;20980;-70
2022/09/01 08:01:26;;;;;;;2.52;0.95;;;;;;;20.79;43.03;100182.86;1705083;83;21907;-73
2022/09/01 08:03:57;;;;;;;3.10;1.15;;;;;;;20.79;43.18;100192.25;1716419;83;21000;-71
2022/09/01 08:06:26;;;;;;;1.00;0.88;;;;;;;20.77;43.25;100181.72;1717814;83;20968;-71
2022/09/01 08:08:55;;;;;;;2.87;1.10;;;;;;;20.81;44.05;100191.03;1716330;82;21075;-70
2022/09/01 08:11:28;;;;;;;2.92;1.20;;;;;;;20.85;43.82;100184.27;1711192;83;21054;-71
2022/09/01 08:13:57;;;;;;;4.30;1.00;;;;;;;20.88;44.45;100179.53;1695189;83;22504;-71
2022/09/01 08:16:26;;;;;;;1.67;1.12;;;;;;;20.96;44.61;100184.77;1700182;84;21431;-70
2022/09/01 08:18:54;;;;;;;4.20;2.85;;;;;;;21.03;43.42;100185.13;1699307;84;20958;-71
2022/09/01 08:21:23;;;;;;;1.20;1.00;;;;;;;21.13;42.54;100184.30;1676463;84;21041;-70
2022/09/01 08:23:57;;;;;;;1.62;0.80;;;;;;;21.18;41.17;100181.53;1678582;84;20958;-70
2022/09/01 08:26:25;;;;;;;2.58;0.80;;;;;;;21.22;41.07;100179.59;1688975;84;22764;-68
2022/09/01 08:28:52;;;;;;;1.55;0.80;;;;;;;21.39;41.46;100176.13;1700774;84;21012;-69
2022/09/01 08:31:22;;;;;;;3.10;0.85;;;;;;;21.62;40.72;100182.07;1687067;84;21009;-71
2022/09/01 08:33:49;;;;;;;2.20;0.90;;;;;;;21.80;39.66;100184.20;1703870;83;21116;-71
2022/09/01 08:36:16;;;;;;;2.70;0.72;;;;;;;21.87;39.44;100170.80;1701080;83;21417;-72
2022/09/01 08:38:43;;;;;;;1.35;0.78;;;;;;;21.91;38.79;100182.84;1701060;84;22825;-70
2022/09/01 08:41:27;;;;;;;1.77;0.78;;;;;;;21.86;38.68;100170.49;1682760;84;21021;-70
2022/09/01 08:44:38;;;;;;;4.25;0.80;;;;;;;21.75;38.51;100173.75;1686742;83;20984;-69
2022/09/01 08:47:07;;;;;;;2.40;0.80;;;;;;;21.63;38.36;100181.04;1691624;83;21517;-71
2022/09/01 08:49:35;;;;;;;2.05;0.80;;;;;;;21.61;38.36;100179.55;1698598;84;21021;-68
2022/09/01 08:52:28;;;;;;;;;;;;;;;21.67;38.76;100181.46;1702027;84;22268;-68
2022/09/01 08:55:11;;;;;;;1.67;0.60;;;;;;;21.77;39.09;100181.09;1680115;85;20165;-67
2022/09/01 08:57:41;;;;;;;3.50;0.78;;;;;;;21.92;38.59;100181.80;1688524;83;21033;-68
2022/09/01 09:00:23;;;;;;;2.67;0.75;;;;;;;21.93;37.69;100173.53;1689590;84;21054;-68
2022/09/01 09:03:19;;;;;;;1.65;0.78;;;;;;;21.90;37.80;100173.91;1689424;84;21115;-69
2022/09/01 09:06:11;;;;;;;2.40;0.70;;;;;;;21.89;37.68;100174.11;1657170;85;22634;-68
2022/09/01 09:08:50;;;;;;;4.97;0.70;;;;;;;21.97;37.35;100175.30;1628255;86;21072;-68
2022/09/01 09:11:49;;;;;;;2.05;0.60;;;;;;;22.04;37.41;100178.02;1677084;84;21463;-68
2022/09/01 09:14:50;;;;;;;3.60;0.80;;;;;;;22.20;36.79;100174.50;1686717;84;20973;-69
2022/09/01 09:17:20;;;;;;;1.47;0.80;;;;;;;22.26;36.19;100186.30;1707116;83;20969;-68
2022/09/01 09:19:48;;;;;;;2.92;1.02;;;;;;;22.35;36.71;100184.25;1704676;83;21111;-68
2022/09/01 09:22:17;;;;;;;1.40;0.70;;;;;;;22.40;35.90;100189.87;1719402;83;21468;-68
2022/09/01 09:24:59;;;;;;;2.52;0.70;;;;;;;22.34;36.00;100184.77;1687880;85;21013;-68
2022/09/01 09:27:33;;;;;;;2.25;0.98;;;;;;;22.27;36.18;100187.95;1686986;84;21049;-70
2022/09/01 09:30:23;;;;;;;1.90;1.10;;;;;;;22.17;36.24;100193.71;1674962;84;21008;-68
2022/09/01 09:33:03;;;;;;;1.37;0.93;;;;;;;22.06;36.53;100193.44;1660572;85;22371;-68
2022/09/01 09:35:37;;;;;;;2.40;0.90;;;;;;;22.00;36.53;100190.53;1668427;85;21020;-68
2022/09/01 09:38:27;;;;;;;4.22;0.80;;;;;;;21.97;36.64;100191.43;1689289;85;21009;-70
2022/09/01 09:41:05;;;;;;;1.25;0.90;;;;;;;21.98;36.96;100201.16;1693378;82;21521;-69
2022/09/01 09:43:39;;;;;;;1.37;0.80;;;;;;;21.98;36.83;100183.16;1692902;83;21039;-69
2022/09/01 09:46:33;;;;;;;1.05;0.75;;;;;;;22.03;37.02;100180.40;1679052;85;22054;-69
2022/09/01 09:49:25;;;;;;;2.50;1.00;;;;;;;22.03;37.32;100188.47;1698170;84;21017;-70
2022/09/01 09:51:56;;;;;;;11.38;1.07;;;;;;;22.03;37.16;100191.16;1718966;82;20962;-69
2022/09/01 09:54:28;;;;;;;3.40;0.90;;;;;;;21.98;36.39;100184.50;1719412;83;20989;-70
2022/09/01 09:57:13;;;;;;;4.72;0.88;;;;;;;21.97;37.29;100181.50;1714108;83;21016;-70
2022/09/01 09:59:52;;;;;;;1.57;0.82;;;;;;;22.06;36.54;100173.27;1690399;85;22667;-69
2022/09/01 10:02:38;;;;;;;1.00;0.70;;;;;;;22.09;36.95;100189.02;1680153;83;20949;-75
2022/09/01 10:05:38;;;;;;;1.20;0.90;;;;;;;22.17;36.84;100178.91;1696646;83;21355;-71
2022/09/01 10:08:09;;;;;;;4.62;1.52;;;;;;;22.41;37.04;100175.38;1709906;83;21024;-69
2022/09/01 10:10:44;;;;;;;2.27;0.90;;;;;;;22.70;35.23;100177.70;1678880;85;20878;-70
2022/09/01 10:13:16;;;;;;;1.60;0.68;;;;;;;22.88;35.67;100181.69;1712858;82;21052;-70
2022/09/01 10:15:52;;;;;;;4.53;0.90;;;;;;;23.17;35.54;100174.53;1699486;82;21002;-69
2022/09/01 10:18:22;;;;;;;3.20;0.80;;;;;;;23.51;34.25;100174.77;1690485;82;20950;-71
2022/09/01 10:21:03;;;;;;;2.10;0.78;;;;;;;23.64;33.09;100169.89;1676447;83;21087;-72
2022/09/01 10:23:32;;;;;;;1.25;0.72;;;;;;;23.63;32.91;100177.67;1677246;85;21052;-70
2022/09/01 10:26:16;;;;;;;1.27;0.70;;;;;;;23.66;33.48;100172.70;1689162;84;22579;-70
2022/09/01 10:29:13;;;;;;;0.88;0.70;;;;;;;23.76;33.47;100172.26;1664521;85;20959;-71
2022/09/01 10:31:40;;;;;;;1.45;0.80;;;;;;;23.84;33.15;100168.50;1690877;84;21069;-70
2022/09/01 10:34:06;;;;;;;1.20;0.70;;;;;;;23.93;33.24;100172.09;1667640;83;20979;-69
2022/09/01 10:36:35;;;;;;;2.42;0.70;;;;;;;24.13;33.33;100176.58;1682971;84;21010;-68
2022/09/01 10:39:03;;;;;;;2.77;0.80;;;;;;;24.34;33.40;100172.23;1672995;84;22490;-68
2022/09/01 10:41:49;;;;;;;1.35;0.70;;;;;;;24.45;32.31;100168.84;1662087;84;21016;-70
2022/09/01 10:44:37;;;;;;;1.67;0.75;;;;;;;24.52;32.68;100173.69;1668361;85;20934;-69
2022/09/01 10:47:28;;;;;;;1.45;0.80;;;;;;;24.73;31.49;100179.25;1689340;84;21048;-70
2022/09/01 10:50:04;;;;;;;3.05;0.70;;;;;;;24.75;32.23;100174.45;1690517;84;21022;-69
2022/09/01 10:52:45;;;;;;;0.80;0.60;;;;;;;24.88;31.61;100165.93;1676742;85;21893;-68
2022/09/01 10:55:19;;;;;;;1.05;0.70;;;;;;;25.11;31.59;100160.27;1688715;84;21604;-70
2022/09/01 10:57:54;;;;;;;3.22;0.80;;;;;;;25.33;30.71;100153.91;1662876;85;21058;-68
2022/09/01 11:00:30;;;;;;;3.12;0.82;;;;;;;25.35;30.20;100155.03;1682302;84;21056;-69
2022/09/01 11:03:17;;;;;;;3.45;0.90;;;;;;;25.31;30.21;100151.96;1694371;84;21051;-70
2022/09/01 11:06:07;;;;;;;0.95;0.62;;;;;;;25.38;30.63;100151.88;1680901;84;21981;-69
2022/09/01 11:08:47;;;;;;;2.30;0.72;;;;;;;25.32;30.01;100148.73;1700372;84;21064;-70
2022/09/01 11:11:38;;;;;;;2.67;0.78;;;;;;;25.00;30.12;100164.19;1670498;85;21074;-71
2022/09/01 11:14:26;;;;;;;1.10;0.60;;;;;;;24.95;30.26;100159.95;1683929;84;21088;-69
2022/09/01 11:17:24;;;;;;;0.82;0.60;;;;;;;25.23;29.94;100154.95;1697740;83;21029;-69
2022/09/01 11:20:09;;;;;;;3.27;0.60;;;;;;;25.29;29.37;100154.06;1683715;85;22985;-70
2022/09/01 11:22:45;;;;;;;3.00;0.62;;;;;;;25.29;30.03;100164.88;1667205;84;21474;-70
2022/09/01 11:25:42;;;;;;;4.50;0.70;;;;;;;25.47;29.93;100161.34;1656606;85;21068;-69
2022/09/01 11:28:18;;;;;;;1.70;0.60;;;;;;;25.73;29.65;100159.44;1682365;84;21038;-68
2022/09/01 11:31:00;;;;;;;2.20;0.70;;;;;;;25.97;29.50;100155.83;1702572;84;21345;-69
2022/09/01 11:34:10;;;;;;;2.55;0.80;;;;;;;26.09;28.56;100147.75;1702139;84;21881;-68
2022/09/01 11:36:57;;;;;;;1.07;0.70;;;;;;;26.15;28.46;100146.81;1683531;85;21053;-68
2022/09/01 11:39:34;;;;;;;1.52;0.70;;;;;;;26.24;27.36;100144.91;1693277;84;21056;-69
2022/09/01 11:42:27;;;;;;;2.00;0.70;;;;;;;26.20;28.63;100141.03;1687595;84;21487;-69
2022/09/01 11:45:15;;;;;;;0.80;0.75;;;;;;;26.17;28.13;100144.20;1702906;84;20946;-68
2022/09/01 11:47:45;;;;;;;1.12;0.78;;;;;;;25.98;27.81;100137.70;1702234;83;21928;-68
2022/09/01 11:50:35;;;;;;;3.83;0.80;;;;;;;25.73;28.71;100141.33;1688093;84;21050;-68
2022/09/01 11:53:09;;;;;;;0.95;0.60;;;;;;;25.77;28.71;100126.81;1702715;84;20986;-68
2022/09/01 11:55:39;;;;;;;;;;;;;;;25.81;28.32;100121.27;1690689;85;20975;-68
2022/09/01 11:58:11;;;;;;;1.00;0.60;;;;;;;25.81;28.54;100122.61;1702824;84;20162;-67
2022/09/01 12:00:40;;;;;;;1.07;0.60;;;;;;;26.00;29.63;100127.47;1688574;84;21906;-68